Terminal Aerodrome Forecast
Issued by NWS

Home | Current Version | Previous Version | Graphics & Text | Print | Product List | Glossary On
Versions: 1 2 3 4 5 6 7 8 9 10 11 12 13 14 15 16 17 18 19 20 21 22 23 24 25 26 27 28 29 30 31 32 33 34 35 36 37 38 39 40 41 42 43 44 45 46 47 48 49 50
000
FTUS43 KLOT 181740
TAFGYY
TAF
KGYY 181740Z 1818/1918 36022G34KT 3SM RA BR BKN009 OVC012
      TEMPO 1819/1821 2SM -RASN
     FM182200 34022G33KT P6SM VCSH BKN015 OVC025
     FM190000 33018G28KT P6SM OVC025
     FM190600 32013G20KT P6SM BKN025
     FM191400 30012KT P6SM FEW020 SCT200=

USA.gov is the U.S. government's official web portal to all federal, state and local government web resources and services.